createdAt,value
2023-01-19T00:00:18.330Z,79
2023-01-19T00:01:19.207Z,80
2023-01-19T00:02:20.288Z,78
2023-01-19T00:03:21.201Z,75
2023-01-19T00:04:22.266Z,73
2023-01-19T00:05:23.537Z,72
2023-01-19T00:06:25.348Z,72
2023-01-19T00:07:26.340Z,71
2023-01-19T00:08:27.278Z,70
2023-01-19T00:09:28.220Z,70
2023-01-19T00:10:29.226Z,71
2023-01-19T00:11:30.243Z,72
2023-01-19T00:12:31.204Z,71
2023-01-19T00:13:32.268Z,69
2023-01-19T00:14:33.228Z,66
2023-01-19T00:15:34.319Z,66
2023-01-19T00:16:35.320Z,66
2023-01-19T00:17:36.178Z,63
2023-01-19T00:18:37.266Z,64
2023-01-19T00:19:38.246Z,66
2023-01-19T00:20:39.257Z,62
2023-01-19T00:21:40.438Z,62
2023-01-19T00:22:41.218Z,62
2023-01-19T00:23:42.187Z,64
2023-01-19T00:24:43.210Z,63
2023-01-19T00:25:44.258Z,64
2023-01-19T00:26:45.351Z,64
2023-01-19T00:27:46.179Z,64
2023-01-19T00:28:47.237Z,64
2023-01-19T00:29:48.293Z,64
2023-01-19T00:30:49.278Z,66
2023-01-19T00:31:50.280Z,68
2023-01-19T00:32:51.279Z,67
2023-01-19T00:33:53.183Z,67
2023-01-19T00:34:54.582Z,66
2023-01-19T00:35:56.449Z,66
2023-01-19T00:36:57.268Z,67
2023-01-19T00:37:58.608Z,69
2023-01-19T00:39:00.322Z,70
2023-01-19T00:40:01.418Z,67
2023-01-19T00:41:02.195Z,73
2023-01-19T00:42:03.278Z,73
2023-01-19T00:43:04.313Z,71
2023-01-19T00:44:05.302Z,71
2023-01-19T00:45:06.432Z,71
2023-01-19T00:46:07.316Z,71
2023-01-19T00:47:08.325Z,71
2023-01-19T00:48:09.318Z,69
2023-01-19T00:49:10.206Z,69
2023-01-19T00:50:11.385Z,68
2023-01-19T00:51:12.321Z,69
2023-01-19T00:52:13.300Z,69
2023-01-19T00:53:14.368Z,69
2023-01-19T00:54:15.289Z,68
2023-01-19T00:55:16.261Z,68
2023-01-19T00:56:17.258Z,68
2023-01-19T00:57:18.214Z,70
2023-01-19T00:58:19.267Z,69
2023-01-19T00:59:20.442Z,69
2023-01-19T01:00:21.198Z,67
2023-01-19T01:01:22.471Z,68
2023-01-19T01:02:23.432Z,67
2023-01-19T01:03:24.171Z,67
2023-01-19T01:04:25.318Z,64
2023-01-19T01:05:26.222Z,64
2023-01-19T01:06:27.329Z,64
2023-01-19T01:07:28.286Z,63
2023-01-19T01:08:29.267Z,64
2023-01-19T01:09:30.431Z,62
2023-01-19T01:10:31.233Z,60
2023-01-19T01:11:32.320Z,58
2023-01-19T01:12:33.295Z,57
2023-01-19T01:13:34.560Z,56
2023-01-19T01:14:36.331Z,56
2023-01-19T01:15:37.309Z,56
2023-01-19T01:16:38.426Z,58
2023-01-19T01:17:39.419Z,56
2023-01-19T01:18:40.482Z,56
2023-01-19T01:19:41.663Z,56
2023-01-19T01:20:43.368Z,56
2023-01-19T01:21:44.324Z,51
2023-01-19T01:22:45.577Z,51
2023-01-19T01:23:47.259Z,51
2023-01-19T01:24:48.395Z,51
2023-01-19T01:25:49.280Z,52
2023-01-19T01:26:50.280Z,52
2023-01-19T01:27:51.246Z,52
2023-01-19T01:28:52.341Z,51
2023-01-19T01:29:53.392Z,50
2023-01-19T01:30:54.451Z,50
2023-01-19T01:31:55.457Z,51
2023-01-19T01:32:56.386Z,51
2023-01-19T01:33:57.376Z,47
2023-01-19T01:34:58.370Z,46
2023-01-19T01:35:59.371Z,45
2023-01-19T01:37:00.367Z,44
2023-01-19T01:38:01.241Z,42
2023-01-19T01:39:02.517Z,41
2023-01-19T01:40:03.290Z,38
2023-01-19T01:41:07.418Z,37
2023-01-19T01:42:08.349Z,37
2023-01-19T01:43:09.379Z,36
2023-01-19T01:44:10.394Z,33
2023-01-19T01:45:11.379Z,31
2023-01-19T01:46:12.368Z,30
2023-01-19T01:47:13.421Z,27
2023-01-19T01:48:15.547Z,27
2023-01-19T01:49:17.299Z,25
2023-01-19T01:50:18.271Z,23
2023-01-19T01:51:19.356Z,22
2023-01-19T01:52:20.293Z,22
2023-01-19T01:53:21.275Z,22
2023-01-19T01:54:22.359Z,22
2023-01-19T01:55:23.338Z,23
2023-01-19T01:56:24.326Z,-1
2023-01-19T01:57:25.359Z,20
2023-01-19T01:58:26.399Z,20
2023-01-19T01:59:27.264Z,20
2023-01-19T02:00:28.275Z,20
2023-01-19T02:01:29.479Z,20
2023-01-19T02:02:30.348Z,20
2023-01-19T02:06:45.250Z,20
2023-01-19T02:07:46.284Z,20
2023-01-19T02:08:47.218Z,20
2023-01-19T02:09:48.263Z,19
2023-01-19T02:10:49.261Z,19
2023-01-19T02:11:50.240Z,17
2023-01-19T02:12:51.209Z,17
2023-01-19T02:13:52.269Z,18
2023-01-19T02:14:53.261Z,18
2023-01-19T02:15:54.281Z,19
2023-01-19T02:16:55.234Z,18
2023-01-19T02:17:56.219Z,19
2023-01-19T02:18:57.259Z,19
2023-01-19T02:19:58.285Z,19
2023-01-19T02:20:59.232Z,18
2023-01-19T02:22:00.203Z,18
2023-01-19T02:23:01.756Z,17
2023-01-19T02:24:02.248Z,16
2023-01-19T02:25:03.261Z,16
2023-01-19T02:26:04.319Z,16
2023-01-19T02:27:05.399Z,16
2023-01-19T02:28:06.639Z,16
2023-01-19T02:29:08.362Z,16
2023-01-19T02:30:09.319Z,15
2023-01-19T02:31:10.386Z,15
2023-01-19T02:32:11.312Z,15
2023-01-19T02:33:12.318Z,15
2023-01-19T02:34:13.285Z,14
2023-01-19T02:35:14.318Z,14
2023-01-19T02:36:15.380Z,14
2023-01-19T02:37:16.327Z,14
2023-01-19T02:38:17.315Z,14
2023-01-19T02:39:18.248Z,14
2023-01-19T02:40:19.236Z,14
2023-01-19T02:41:20.361Z,14
2023-01-19T02:42:21.323Z,14
2023-01-19T02:43:22.241Z,14
2023-01-19T02:44:23.319Z,14
2023-01-19T02:45:24.799Z,14
2023-01-19T02:46:26.261Z,14
2023-01-19T02:47:27.234Z,14
2023-01-19T02:48:28.198Z,14
2023-01-19T02:49:29.801Z,14
2023-01-19T02:50:32.121Z,14
2023-01-19T02:51:32.323Z,14
2023-01-19T02:52:33.239Z,14
2023-01-19T02:53:34.255Z,14
2023-01-19T02:54:35.219Z,15
2023-01-19T02:55:36.370Z,15
2023-01-19T02:56:37.539Z,16
2023-01-19T02:57:38.401Z,16
2023-01-19T02:58:39.319Z,16
2023-01-19T02:59:40.379Z,16
2023-01-19T03:00:41.419Z,16
2023-01-19T03:01:42.463Z,16
2023-01-19T03:02:43.371Z,16
2023-01-19T03:03:44.359Z,16
2023-01-19T03:04:45.344Z,16
2023-01-19T03:05:46.419Z,17
2023-01-19T03:06:47.326Z,17
2023-01-19T03:07:48.305Z,18
2023-01-19T03:08:49.255Z,17
2023-01-19T03:09:50.904Z,16
2023-01-19T03:10:52.342Z,16
2023-01-19T03:11:53.418Z,16
2023-01-19T03:12:54.333Z,16
2023-01-19T03:13:55.283Z,17
2023-01-19T03:14:56.301Z,17
2023-01-19T03:15:57.303Z,17
2023-01-19T03:16:58.333Z,17
2023-01-19T03:17:59.221Z,17
2023-01-19T03:19:00.267Z,17
2023-01-19T03:20:01.286Z,18
2023-01-19T03:21:02.280Z,18
2023-01-19T03:22:03.327Z,17
2023-01-19T03:23:04.534Z,16
2023-01-19T03:24:05.275Z,17
2023-01-19T03:25:06.630Z,17
2023-01-19T03:26:07.321Z,17
2023-01-19T03:27:08.339Z,17
2023-01-19T03:28:09.250Z,17
2023-01-19T03:29:10.589Z,17
2023-01-19T03:30:11.600Z,17
2023-01-19T03:31:12.443Z,17
2023-01-19T03:32:13.370Z,17
2023-01-19T03:33:14.278Z,17
2023-01-19T03:34:15.197Z,18
2023-01-19T03:35:16.707Z,19
2023-01-19T03:36:17.226Z,19
2023-01-19T03:37:18.341Z,19
2023-01-19T03:38:19.331Z,19
2023-01-19T03:39:20.824Z,19
2023-01-19T03:40:22.326Z,19
2023-01-19T03:41:23.319Z,19
2023-01-19T03:42:24.379Z,18
2023-01-19T03:43:25.361Z,19
2023-01-19T03:44:26.401Z,19
2023-01-19T03:45:27.341Z,20
2023-01-19T03:46:28.430Z,22
2023-01-19T03:47:29.384Z,22
2023-01-19T03:48:30.395Z,22
2023-01-19T03:49:31.350Z,22
2023-01-19T03:50:32.462Z,22
2023-01-19T03:51:33.299Z,22
2023-01-19T03:52:34.320Z,23
2023-01-19T03:53:35.263Z,24
2023-01-19T03:54:36.348Z,24
2023-01-19T03:55:37.290Z,24
2023-01-19T03:56:38.302Z,24
2023-01-19T03:57:39.321Z,24
2023-01-19T03:58:40.339Z,24
2023-01-19T03:59:41.349Z,24
2023-01-19T04:00:42.359Z,24
2023-01-19T04:01:43.451Z,25
2023-01-19T04:02:44.459Z,25
2023-01-19T04:03:45.580Z,25
2023-01-19T04:04:46.366Z,25
2023-01-19T04:05:47.396Z,26
2023-01-19T04:06:48.274Z,26
2023-01-19T04:07:49.365Z,27
2023-01-19T04:08:50.311Z,28
2023-01-19T04:09:51.294Z,29
2023-01-19T04:10:52.309Z,30
2023-01-19T04:11:53.318Z,30
2023-01-19T04:12:54.420Z,30
2023-01-19T04:13:55.319Z,31
2023-01-19T04:14:56.345Z,31
2023-01-19T04:15:57.371Z,31
2023-01-19T04:16:58.337Z,31
2023-01-19T04:17:59.373Z,30
2023-01-19T04:19:00.379Z,30
2023-01-19T04:20:01.381Z,30
2023-01-19T04:21:02.340Z,30
2023-01-19T04:22:03.307Z,31
2023-01-19T04:23:04.457Z,31
2023-01-19T04:24:05.359Z,31
2023-01-19T04:25:06.720Z,31
2023-01-19T04:26:08.382Z,31
2023-01-19T04:27:09.372Z,33
2023-01-19T04:28:10.352Z,34
2023-01-19T04:29:11.358Z,34
2023-01-19T04:30:12.385Z,34
2023-01-19T04:31:13.453Z,34
2023-01-19T04:32:14.319Z,36
2023-01-19T04:33:15.307Z,36
2023-01-19T04:34:16.407Z,37
2023-01-19T04:35:17.338Z,36
2023-01-19T04:36:18.382Z,36
2023-01-19T04:37:19.340Z,36
2023-01-19T04:38:20.384Z,36
2023-01-19T04:39:21.378Z,37
2023-01-19T04:40:22.287Z,38
2023-01-19T04:41:23.238Z,38
2023-01-19T04:42:24.360Z,38
2023-01-19T04:43:25.421Z,38
2023-01-19T04:44:26.304Z,38
2023-01-19T04:45:27.319Z,38
2023-01-19T04:46:28.371Z,38
2023-01-19T04:47:29.299Z,37
2023-01-19T04:48:30.380Z,-1
2023-01-19T04:49:31.339Z,38
2023-01-19T04:50:32.307Z,38
2023-01-19T04:51:33.316Z,38
2023-01-19T04:52:34.298Z,38
2023-01-19T04:53:35.435Z,38
2023-01-19T04:54:36.330Z,39
2023-01-19T04:55:37.306Z,40
2023-01-19T04:56:38.319Z,40
2023-01-19T04:57:39.359Z,40
2023-01-19T04:58:40.400Z,38
2023-01-19T04:59:41.339Z,38
2023-01-19T05:00:42.324Z,38
2023-01-19T05:01:43.407Z,38
2023-01-19T05:02:44.504Z,36
2023-01-19T05:03:45.354Z,36
2023-01-19T05:04:46.403Z,36
2023-01-19T05:05:47.381Z,36
2023-01-19T05:06:48.399Z,37
2023-01-19T05:07:49.363Z,36
2023-01-19T05:08:50.420Z,35
2023-01-19T05:09:51.339Z,35
2023-01-19T05:10:52.332Z,34
2023-01-19T05:11:53.400Z,34
2023-01-19T05:12:54.486Z,34
2023-01-19T05:13:55.939Z,33
2023-01-19T05:14:57.419Z,33
2023-01-19T05:15:58.902Z,34
2023-01-19T05:17:00.488Z,34
2023-01-19T05:18:01.501Z,33
2023-01-19T05:19:02.452Z,31
2023-01-19T05:20:03.877Z,31
2023-01-19T05:21:05.406Z,33
2023-01-19T05:22:06.828Z,33
2023-01-19T05:23:08.368Z,33
2023-01-19T05:24:09.365Z,29
2023-01-19T05:25:10.361Z,29
2023-01-19T05:26:11.426Z,29
2023-01-19T05:27:12.318Z,29
2023-01-19T05:28:13.385Z,29
2023-01-19T05:29:14.359Z,29
2023-01-19T05:30:15.319Z,29
2023-01-19T05:31:18.541Z,30
2023-01-19T05:32:17.306Z,30
2023-01-19T05:33:18.346Z,30
2023-01-19T05:34:19.340Z,31
2023-01-19T05:35:31.236Z,31
2023-01-19T05:36:21.359Z,31
2023-01-19T05:37:22.420Z,33
2023-01-19T05:38:34.035Z,33
2023-01-19T05:39:24.901Z,33
2023-01-19T05:40:26.446Z,33
2023-01-19T05:41:27.910Z,31
2023-01-19T05:42:31.331Z,30
2023-01-19T05:43:30.367Z,30
2023-01-19T05:44:31.378Z,30
2023-01-19T05:45:32.448Z,29
2023-01-19T05:46:33.522Z,28
2023-01-19T05:47:34.449Z,28
2023-01-19T05:48:35.430Z,28
2023-01-19T05:49:36.404Z,29
2023-01-19T05:50:37.319Z,29
2023-01-19T05:51:38.330Z,29
2023-01-19T05:52:39.378Z,29
2023-01-19T05:53:40.471Z,29
2023-01-19T05:54:41.508Z,30
2023-01-19T05:55:42.362Z,30
2023-01-19T05:56:43.441Z,30
2023-01-19T05:57:44.400Z,29
2023-01-19T05:58:45.384Z,29
2023-01-19T05:59:46.510Z,29
2023-01-19T06:00:47.398Z,29
2023-01-19T06:01:48.408Z,29
2023-01-19T06:02:49.559Z,29
2023-01-19T06:03:50.363Z,30
2023-01-19T06:04:51.363Z,31
2023-01-19T06:05:52.324Z,30
2023-01-19T06:06:53.410Z,30
2023-01-19T06:07:54.399Z,29
2023-01-19T06:08:55.399Z,28
2023-01-19T06:09:56.359Z,28
2023-01-19T06:10:57.319Z,28
2023-01-19T06:11:58.370Z,29
2023-01-19T06:12:59.865Z,28
2023-01-19T06:14:00.561Z,29
2023-01-19T06:15:01.532Z,28
2023-01-19T06:16:02.419Z,27
2023-01-19T06:17:03.439Z,27
2023-01-19T06:18:04.399Z,26
2023-01-19T06:19:06.488Z,26
2023-01-19T06:20:07.401Z,26
2023-01-19T06:21:08.347Z,26
2023-01-19T06:22:09.438Z,26
2023-01-19T06:23:10.533Z,25
2023-01-19T06:24:13.158Z,25
2023-01-19T06:25:12.420Z,25
2023-01-19T06:26:13.401Z,25
2023-01-19T06:27:14.504Z,25
2023-01-19T06:28:15.769Z,25
2023-01-19T06:29:17.394Z,25
2023-01-19T06:30:18.339Z,26
2023-01-19T06:31:19.426Z,26
2023-01-19T06:32:20.422Z,26
2023-01-19T06:33:21.399Z,25
2023-01-19T06:34:22.360Z,25
2023-01-19T06:35:23.349Z,25
2023-01-19T06:36:24.479Z,25
2023-01-19T06:37:25.456Z,26
2023-01-19T06:38:26.698Z,25
2023-01-19T06:39:27.878Z,25
2023-01-19T06:40:29.721Z,26
2023-01-19T06:41:31.560Z,27
2023-01-19T06:42:32.484Z,27
2023-01-19T06:43:33.799Z,27
2023-01-19T06:44:35.473Z,27
2023-01-19T06:45:36.557Z,27
2023-01-19T06:46:37.398Z,27
2023-01-19T06:47:38.383Z,28
2023-01-19T06:48:39.438Z,28
2023-01-19T06:49:40.499Z,28
2023-01-19T06:50:41.698Z,28
2023-01-19T06:51:42.679Z,28
2023-01-19T06:52:43.438Z,28
2023-01-19T06:53:44.399Z,27
2023-01-19T06:54:45.623Z,27
2023-01-19T06:55:46.501Z,27
2023-01-19T06:56:47.440Z,27
2023-01-19T06:57:48.703Z,27
2023-01-19T06:58:50.495Z,27
2023-01-19T06:59:51.435Z,28
2023-01-19T07:00:52.631Z,28
2023-01-19T07:01:53.523Z,28
2023-01-19T07:02:54.585Z,27
2023-01-19T07:03:56.419Z,26
2023-01-19T07:04:57.471Z,26
2023-01-19T07:05:59.459Z,26
2023-01-19T07:07:00.519Z,26
2023-01-19T07:08:01.404Z,25
2023-01-19T07:09:02.342Z,25
2023-01-19T07:10:03.380Z,25
2023-01-19T07:11:21.689Z,25
2023-01-19T07:12:05.407Z,25
2023-01-19T07:13:07.630Z,25
2023-01-19T07:14:08.390Z,25
2023-01-19T07:15:09.533Z,25
2023-01-19T07:16:10.431Z,25
2023-01-19T07:17:11.458Z,25
2023-01-19T07:18:12.463Z,25
2023-01-19T07:19:13.336Z,26
2023-01-19T07:20:14.551Z,25
2023-01-19T07:21:15.459Z,25
2023-01-19T07:22:16.509Z,25
2023-01-19T07:23:17.440Z,25
2023-01-19T07:24:18.389Z,25
2023-01-19T07:25:19.439Z,26
2023-01-19T07:26:20.398Z,26
2023-01-19T07:27:21.459Z,26
2023-01-19T07:28:23.063Z,26
2023-01-19T07:29:24.521Z,26
2023-01-19T07:30:25.464Z,25
2023-01-19T07:31:26.569Z,25
2023-01-19T07:32:27.411Z,25
2023-01-19T07:33:28.408Z,25
2023-01-19T07:34:29.339Z,25
2023-01-19T07:35:30.488Z,25
2023-01-19T07:36:31.403Z,24
2023-01-19T07:37:32.454Z,24
2023-01-19T07:38:33.453Z,23
2023-01-19T07:39:34.935Z,23
2023-01-19T07:40:36.411Z,23
2023-01-19T07:41:37.340Z,23
2023-01-19T07:42:38.421Z,23
2023-01-19T07:43:39.545Z,22
2023-01-19T07:44:40.527Z,22
2023-01-19T07:45:41.688Z,22
2023-01-19T07:46:42.780Z,22
2023-01-19T07:47:43.480Z,22
2023-01-19T07:48:44.457Z,23
2023-01-19T07:49:45.332Z,24
2023-01-19T07:50:46.392Z,24
2023-01-19T07:51:47.357Z,24
2023-01-19T07:52:48.701Z,24
2023-01-19T07:53:50.002Z,25
2023-01-19T07:54:51.848Z,24
2023-01-19T07:55:53.450Z,25
2023-01-19T07:56:54.406Z,24
2023-01-19T07:57:55.482Z,24
2023-01-19T07:58:56.543Z,24
2023-01-19T07:59:57.383Z,24
2023-01-19T08:00:58.534Z,25
2023-01-19T08:01:59.811Z,25
2023-01-19T08:03:00.802Z,24
2023-01-19T08:04:01.462Z,24
2023-01-19T08:05:02.422Z,24
2023-01-19T08:06:03.425Z,24
2023-01-19T08:07:04.425Z,24
2023-01-19T08:08:05.368Z,24
2023-01-19T08:09:07.041Z,24
2023-01-19T08:10:08.379Z,23
2023-01-19T08:11:09.414Z,23
2023-01-19T08:12:10.412Z,25
2023-01-19T08:13:12.019Z,25
2023-01-19T08:14:13.421Z,26
2023-01-19T08:15:14.394Z,29
2023-01-19T08:16:15.730Z,24
2023-01-19T08:17:16.342Z,24
2023-01-19T08:18:17.425Z,23
2023-01-19T08:19:18.377Z,23
2023-01-19T08:20:19.414Z,22
2023-01-19T08:21:20.469Z,23
2023-01-19T08:22:21.424Z,22
2023-01-19T08:23:22.468Z,23
2023-01-19T08:24:23.403Z,23
2023-01-19T08:25:24.553Z,23
2023-01-19T08:26:25.329Z,23
2023-01-19T08:27:26.419Z,24
2023-01-19T08:28:27.740Z,24
2023-01-19T08:29:28.514Z,23
2023-01-19T08:30:29.420Z,23
2023-01-19T08:31:30.666Z,22
2023-01-19T08:32:31.420Z,22
2023-01-19T08:33:32.424Z,24
2023-01-19T08:34:33.370Z,23
2023-01-19T08:35:34.322Z,23
2023-01-19T08:36:35.635Z,24
2023-01-19T08:37:36.429Z,23
2023-01-19T08:38:37.502Z,24
2023-01-19T08:39:38.390Z,23
2023-01-19T08:40:39.447Z,23
2023-01-19T08:41:40.576Z,23
2023-01-19T08:42:41.356Z,23
2023-01-19T08:43:42.393Z,23
2023-01-19T08:44:56.959Z,23
2023-01-19T08:45:45.437Z,24
2023-01-19T08:46:46.413Z,24
2023-01-19T08:47:47.494Z,24
2023-01-19T08:48:48.434Z,24
2023-01-19T08:49:49.375Z,24
2023-01-19T08:50:50.441Z,24
2023-01-19T08:51:51.436Z,23
2023-01-19T08:52:52.429Z,22
2023-01-19T08:53:53.934Z,22
2023-01-19T08:54:55.505Z,23
2023-01-19T08:55:56.455Z,20
2023-01-19T08:56:57.742Z,22
2023-01-19T08:57:59.440Z,22
2023-01-19T08:59:08.955Z,23
2023-01-19T09:00:02.668Z,24
2023-01-19T09:01:04.207Z,24
2023-01-19T09:02:04.549Z,22
2023-01-19T09:03:05.936Z,23
2023-01-19T09:04:07.108Z,24
2023-01-19T09:05:08.654Z,25
2023-01-19T09:06:09.478Z,25
2023-01-19T09:07:10.440Z,25
2023-01-19T09:08:11.443Z,25
2023-01-19T09:09:12.470Z,25
2023-01-19T09:10:13.481Z,26
2023-01-19T09:11:14.420Z,26
2023-01-19T09:12:15.591Z,25
2023-01-19T09:13:16.520Z,26
2023-01-19T09:14:17.489Z,25
2023-01-19T09:15:18.582Z,25
2023-01-19T09:16:19.442Z,24
2023-01-19T09:17:20.521Z,23
2023-01-19T09:18:21.447Z,22
2023-01-19T09:19:22.592Z,20
2023-01-19T09:20:23.526Z,20
2023-01-19T09:21:24.515Z,20
2023-01-19T09:22:25.562Z,22
2023-01-19T09:23:26.611Z,20
2023-01-19T09:24:27.520Z,20
2023-01-19T09:25:28.510Z,20
2023-01-19T09:26:30.263Z,19
2023-01-19T09:27:31.285Z,22
2023-01-19T09:28:32.465Z,22
2023-01-19T09:29:33.828Z,23
2023-01-19T09:30:34.515Z,23
2023-01-19T09:31:35.591Z,22
2023-01-19T09:32:36.484Z,20
2023-01-19T09:33:37.581Z,19
2023-01-19T09:34:38.417Z,19
2023-01-19T09:35:39.557Z,18
2023-01-19T09:36:40.603Z,20
2023-01-19T09:37:41.459Z,18
2023-01-19T09:38:42.426Z,18
2023-01-19T09:39:43.432Z,19
2023-01-19T09:40:44.491Z,20
2023-01-19T09:41:45.380Z,22
2023-01-19T09:42:46.531Z,20
2023-01-19T09:43:47.600Z,20
2023-01-19T09:44:48.461Z,19
2023-01-19T09:45:49.534Z,18
2023-01-19T09:46:50.561Z,18
2023-01-19T09:47:51.542Z,19
2023-01-19T09:48:52.640Z,19
2023-01-19T09:49:53.942Z,18
2023-01-19T09:50:55.721Z,18
2023-01-19T09:51:56.427Z,18
2023-01-19T09:52:57.509Z,18
2023-01-19T09:53:58.650Z,18
2023-01-19T09:54:59.487Z,17
2023-01-19T09:56:00.613Z,17
2023-01-19T09:57:01.561Z,18
2023-01-19T09:58:03.008Z,18
2023-01-19T09:59:03.960Z,18
2023-01-19T10:00:05.519Z,18
2023-01-19T10:01:06.648Z,19
2023-01-19T10:02:08.300Z,19
2023-01-19T10:03:09.580Z,18
2023-01-19T10:04:10.537Z,17
2023-01-19T10:05:11.459Z,17
2023-01-19T10:06:12.979Z,19
2023-01-19T10:07:14.862Z,18
2023-01-19T10:08:16.488Z,18
2023-01-19T10:09:17.807Z,18
2023-01-19T10:10:18.519Z,16
2023-01-19T10:11:19.460Z,16
2023-01-19T10:12:20.939Z,16
2023-01-19T10:13:22.657Z,16
2023-01-19T10:14:23.500Z,18
2023-01-19T10:15:24.597Z,16
2023-01-19T10:16:26.035Z,16
2023-01-19T10:17:27.558Z,17
2023-01-19T10:18:28.383Z,18
2023-01-19T10:19:29.398Z,16
2023-01-19T10:20:30.583Z,16
2023-01-19T10:21:31.871Z,15
2023-01-19T10:22:33.740Z,15
2023-01-19T10:23:34.595Z,14
2023-01-19T10:24:35.515Z,14
2023-01-19T10:25:36.579Z,13
2023-01-19T10:26:37.622Z,13
2023-01-19T10:27:38.497Z,14
2023-01-19T10:28:39.719Z,14
2023-01-19T10:29:41.841Z,14
2023-01-19T10:30:43.571Z,14
2023-01-19T10:31:44.745Z,14
2023-01-19T10:32:45.579Z,14
2023-01-19T10:33:46.538Z,13
2023-01-19T10:34:47.520Z,13
2023-01-19T10:35:48.515Z,13
2023-01-19T10:36:49.479Z,14
2023-01-19T10:37:50.579Z,14
2023-01-19T10:38:51.562Z,14
2023-01-19T10:39:52.562Z,14
2023-01-19T10:40:53.604Z,13
2023-01-19T10:41:54.577Z,13
2023-01-19T10:42:55.507Z,12
2023-01-19T10:43:56.512Z,11
2023-01-19T10:44:57.604Z,12
2023-01-19T10:45:58.619Z,12
2023-01-19T10:46:59.710Z,13
2023-01-19T10:48:00.592Z,13
2023-01-19T10:49:01.656Z,11
2023-01-19T10:50:02.722Z,11
2023-01-19T10:51:04.565Z,12
2023-01-19T10:52:05.725Z,12
2023-01-19T10:53:07.544Z,13
2023-01-19T10:54:08.579Z,11
2023-01-19T10:55:09.590Z,12
2023-01-19T10:56:10.576Z,12
2023-01-19T10:57:11.538Z,13
2023-01-19T10:58:12.838Z,12
2023-01-19T10:59:13.672Z,12
2023-01-19T11:00:15.076Z,13
2023-01-19T11:01:16.732Z,12
2023-01-19T11:02:17.859Z,14
2023-01-19T11:03:18.665Z,14
2023-01-19T11:04:19.502Z,13
2023-01-19T11:05:20.578Z,14
2023-01-19T11:06:21.766Z,15
2023-01-19T11:07:23.625Z,15
2023-01-19T11:08:24.547Z,15
2023-01-19T11:09:25.475Z,14
2023-01-19T11:10:26.589Z,15
2023-01-19T11:11:27.480Z,15
2023-01-19T11:12:28.501Z,14
2023-01-19T11:13:29.500Z,13
2023-01-19T11:14:30.498Z,12
2023-01-19T11:15:32.038Z,12
2023-01-19T11:16:33.544Z,13
2023-01-19T11:17:34.718Z,14
2023-01-19T11:18:36.899Z,13
2023-01-19T11:19:38.698Z,14
2023-01-19T11:20:40.580Z,15
2023-01-19T11:21:41.499Z,16
2023-01-19T11:22:42.524Z,14
2023-01-19T11:23:43.500Z,14
2023-01-19T11:24:44.543Z,13
2023-01-19T11:25:45.477Z,14
2023-01-19T11:26:46.602Z,14
2023-01-19T11:27:47.524Z,13
2023-01-19T11:28:48.606Z,13
2023-01-19T11:29:49.521Z,13
2023-01-19T11:30:50.976Z,13
2023-01-19T11:31:52.671Z,11
2023-01-19T11:32:53.604Z,12
2023-01-19T11:33:54.621Z,13
2023-01-19T11:34:55.630Z,11
2023-01-19T11:35:56.579Z,11
2023-01-19T11:36:57.870Z,11
2023-01-19T11:37:59.579Z,11
2023-01-19T11:39:00.550Z,12
2023-01-19T11:40:01.549Z,12
2023-01-19T11:41:03.142Z,11
2023-01-19T11:42:04.598Z,13
2023-01-19T11:43:05.542Z,12
2023-01-19T11:44:06.660Z,9
2023-01-19T11:45:08.080Z,11
2023-01-19T11:46:09.800Z,12
2023-01-19T11:47:12.523Z,9
2023-01-19T11:48:13.644Z,9
2023-01-19T11:49:14.598Z,11
2023-01-19T11:50:15.539Z,12
2023-01-19T11:51:16.497Z,11
2023-01-19T11:52:17.529Z,13
2023-01-19T11:53:18.522Z,12
2023-01-19T11:54:19.483Z,13
2023-01-19T11:55:20.502Z,12
2023-01-19T11:56:21.640Z,11
2023-01-19T11:57:22.709Z,12
2023-01-19T11:58:23.599Z,12
2023-01-19T11:59:24.579Z,13
2023-01-19T12:00:25.946Z,12
2023-01-19T12:01:27.611Z,11
2023-01-19T12:02:28.635Z,11
2023-01-19T12:03:29.697Z,11
2023-01-19T12:04:30.645Z,12
2023-01-19T12:05:32.460Z,9
2023-01-19T12:06:33.499Z,9
2023-01-19T12:07:34.507Z,8
2023-01-19T12:08:35.585Z,8
2023-01-19T12:09:36.721Z,9
2023-01-19T12:10:37.479Z,12
2023-01-19T12:11:38.559Z,13
2023-01-19T12:12:39.517Z,9
2023-01-19T12:13:40.621Z,9
2023-01-19T12:14:41.558Z,9
2023-01-19T12:15:42.522Z,11
2023-01-19T12:16:43.566Z,11
2023-01-19T12:17:45.451Z,12
2023-01-19T12:18:46.582Z,12
2023-01-19T12:19:47.580Z,13
2023-01-19T12:20:49.225Z,12
2023-01-19T12:21:50.528Z,12
2023-01-19T12:22:51.559Z,12
2023-01-19T12:23:52.552Z,15
2023-01-19T12:24:54.083Z,19
2023-01-19T12:25:55.539Z,14
2023-01-19T12:26:56.539Z,13
2023-01-19T12:27:57.509Z,11
2023-01-19T12:28:58.539Z,11
2023-01-19T12:29:59.570Z,12
2023-01-19T12:31:00.720Z,9
2023-01-19T12:32:02.287Z,11
2023-01-19T12:33:03.521Z,12
2023-01-19T12:34:04.589Z,12
2023-01-19T12:35:05.537Z,11
2023-01-19T12:36:06.549Z,12
2023-01-19T12:37:07.858Z,11
2023-01-19T12:38:08.599Z,8
2023-01-19T12:39:09.639Z,9
2023-01-19T12:40:10.586Z,11
2023-01-19T12:41:11.576Z,9
2023-01-19T12:42:12.578Z,6
2023-01-19T12:43:13.480Z,7
2023-01-19T12:44:14.498Z,7
2023-01-19T12:45:15.589Z,8
2023-01-19T12:46:16.657Z,8
2023-01-19T12:47:17.618Z,9
2023-01-19T12:48:18.559Z,11
2023-01-19T12:49:19.658Z,11
2023-01-19T12:50:20.622Z,11
2023-01-19T12:51:21.659Z,8
2023-01-19T12:52:22.491Z,6
2023-01-19T12:53:23.568Z,6
2023-01-19T12:54:24.619Z,7
2023-01-19T12:55:25.580Z,5
2023-01-19T12:56:26.599Z,5
2023-01-19T12:57:27.599Z,5
2023-01-19T12:58:28.640Z,5
2023-01-19T12:59:29.861Z,6
2023-01-19T13:00:30.578Z,6
2023-01-19T13:01:32.161Z,6
2023-01-19T13:02:33.793Z,6
2023-01-19T13:03:34.614Z,6
2023-01-19T13:04:35.626Z,6
2023-01-19T13:05:36.560Z,6
2023-01-19T13:06:37.559Z,5
2023-01-19T13:07:38.578Z,6
2023-01-19T13:08:39.539Z,6
2023-01-19T13:09:40.658Z,8
2023-01-19T13:10:41.618Z,8
2023-01-19T13:11:44.353Z,5
2023-01-19T13:12:43.523Z,4
2023-01-19T13:13:44.568Z,4
2023-01-19T13:14:45.527Z,5
2023-01-19T13:15:46.573Z,6
2023-01-19T13:16:47.557Z,5
2023-01-19T13:17:50.005Z,6
2023-01-19T13:18:49.515Z,6
2023-01-19T13:19:51.173Z,6
2023-01-19T13:20:52.638Z,5
2023-01-19T13:21:53.698Z,6
2023-01-19T13:22:54.605Z,6
2023-01-19T13:23:55.562Z,6
2023-01-19T13:24:58.268Z,5
2023-01-19T13:25:59.577Z,5
2023-01-19T13:27:00.658Z,6
2023-01-19T13:28:01.965Z,7
2023-01-19T13:29:02.618Z,9
2023-01-19T13:30:03.838Z,8
2023-01-19T13:31:04.760Z,6
2023-01-19T13:32:05.684Z,5
2023-01-19T13:33:06.528Z,8
2023-01-19T13:34:07.576Z,9
2023-01-19T13:35:08.666Z,5
2023-01-19T13:36:09.618Z,5
2023-01-19T13:37:10.739Z,4
2023-01-19T13:38:11.839Z,3
2023-01-19T13:39:12.619Z,5
2023-01-19T13:40:13.621Z,5
2023-01-19T13:41:14.768Z,4
2023-01-19T13:42:16.349Z,4
2023-01-19T13:43:18.178Z,5
2023-01-19T13:44:19.609Z,4
2023-01-19T13:45:20.598Z,6
2023-01-19T13:46:21.680Z,6
2023-01-19T13:47:22.769Z,4
2023-01-19T13:48:23.571Z,4
2023-01-19T13:49:24.778Z,4
2023-01-19T13:50:26.228Z,5
2023-01-19T13:51:27.549Z,4
2023-01-19T13:52:28.645Z,4
2023-01-19T13:53:29.623Z,6
2023-01-19T13:54:30.555Z,7
2023-01-19T13:55:31.716Z,6
2023-01-19T13:56:32.578Z,7
2023-01-19T13:57:33.658Z,11
2023-01-19T13:58:34.658Z,7
2023-01-19T13:59:35.684Z,8
2023-01-19T14:00:36.692Z,8
2023-01-19T14:01:37.863Z,8
2023-01-19T14:02:38.711Z,7
2023-01-19T14:03:39.581Z,5
2023-01-19T14:04:40.570Z,8
2023-01-19T14:05:41.681Z,5
2023-01-19T14:06:42.559Z,3
2023-01-19T14:07:43.633Z,3
2023-01-19T14:08:44.627Z,5
2023-01-19T14:09:45.555Z,5
2023-01-19T14:10:46.627Z,5
2023-01-19T14:11:47.493Z,5
2023-01-19T14:12:59.046Z,5
2023-01-19T14:13:51.082Z,5
2023-01-19T14:14:52.655Z,5
2023-01-19T14:15:56.778Z,5
2023-01-19T14:16:57.561Z,5
2023-01-19T14:17:58.573Z,5
2023-01-19T14:18:59.703Z,6
2023-01-19T14:20:00.938Z,7
2023-01-19T14:21:01.763Z,8
2023-01-19T14:22:03.940Z,7
2023-01-19T14:23:05.552Z,7
2023-01-19T14:24:06.589Z,7
2023-01-19T14:25:08.380Z,7
2023-01-19T14:26:09.725Z,8
2023-01-19T14:27:10.835Z,6
2023-01-19T14:28:11.579Z,7
2023-01-19T14:29:12.659Z,7
2023-01-19T14:30:13.598Z,7
2023-01-19T14:31:14.798Z,7
2023-01-19T14:32:15.679Z,7
2023-01-19T14:33:17.619Z,6
2023-01-19T14:34:19.477Z,6
2023-01-19T14:35:20.659Z,6
2023-01-19T14:36:21.721Z,6
2023-01-19T14:37:23.201Z,7
2023-01-19T14:38:24.651Z,7
2023-01-19T14:39:25.604Z,6